Time;durP1;ratioP1;P1;durP2;ratioP2;P2;SDS_P1;SDS_P2;PMS_P1;PMS_P2;Temp;Humidity;BMP_temperature;BMP_pressure;BME280_temperature;BME280_humidity;BME280_pressure;Samples;Min_cycle;Max_cycle;Signal;HPM_P1;HPM_P2
2022/11/08 00:01:31;;;;;;;5.27;2.53;;;3.70;99.90;;;;;;4231238;28;20187;-68
2022/11/08 00:03:32;;;;;;;5.70;1.77;;;3.70;99.90;;;;;;4231601;28;20827;-68
2022/11/08 00:14:49;;;;;;;4.90;2.10;;;3.80;99.90;;;;;;4218374;27;20447;-66
2022/11/08 00:16:50;;;;;;;2.40;1.73;;;3.80;99.90;;;;;;4245048;27;20409;-67
2022/11/08 00:18:50;;;;;;;2.53;1.80;;;3.70;99.90;;;;;;4233213;27;20200;-66
2022/11/08 00:20:51;;;;;;;2.73;1.73;;;3.80;99.90;;;;;;4244415;27;20184;-65
2022/11/08 00:22:52;;;;;;;2.13;1.90;;;3.70;99.90;;;;;;4233191;27;20180;-66
2022/11/08 00:24:52;;;;;;;3.37;2.20;;;3.80;99.90;;;;;;4244837;27;20889;-68
2022/11/08 00:26:53;;;;;;;2.40;1.97;;;3.70;99.90;;;;;;4233476;27;20180;-67
2022/11/08 00:28:54;;;;;;;4.50;1.80;;;3.70;99.90;;;;;;4244330;27;20569;-68
2022/11/08 00:30:54;;;;;;;1.70;1.60;;;3.70;99.90;;;;;;4232903;27;20677;-71
2022/11/08 00:32:55;;;;;;;2.80;1.70;;;3.70;99.90;;;;;;4243945;27;20192;-66
2022/11/08 00:34:56;;;;;;;2.43;2.00;;;3.70;99.90;;;;;;4233785;27;20184;-64
2022/11/08 00:36:56;;;;;;;3.63;1.70;;;3.60;99.90;;;;;;4247960;27;20187;-69
2022/11/08 00:38:57;;;;;;;2.47;1.70;;;3.70;99.90;;;;;;4246975;27;20208;-69
2022/11/08 00:40:58;;;;;;;3.30;2.03;;;3.80;99.90;;;;;;4247029;27;20650;-69
2022/11/08 00:42:58;;;;;;;4.63;2.00;;;3.80;99.90;;;;;;4253262;27;20560;-69
2022/11/08 00:44:59;;;;;;;2.30;1.90;;;3.70;99.90;;;;;;4251453;27;20362;-69
2022/11/08 00:47:00;;;;;;;8.27;2.37;;;3.60;99.90;;;;;;4247757;27;20202;-69
2022/11/08 00:49:00;;;;;;;2.83;2.03;;;3.60;99.90;;;;;;4247809;27;20201;-68
2022/11/08 00:51:04;;;;;;;3.50;2.27;;;3.50;99.90;;;;;;4247364;27;20235;-69
2022/11/08 00:53:05;;;;;;;2.77;1.97;;;3.50;99.90;;;;;;4248154;27;20193;-69
2022/11/08 00:55:06;;;;;;;2.53;2.10;;;3.50;99.90;;;;;;4248017;27;20790;-69
2022/11/08 00:57:07;;;;;;;7.23;2.40;;;3.50;99.90;;;;;;4247863;27;20479;-69
2022/11/08 00:59:11;;;;;;;2.77;2.20;;;3.40;99.90;;;;;;4247764;27;20461;-69
2022/11/08 01:01:19;;;;;;;4.23;2.43;;;3.40;99.90;;;;;;4247122;27;20175;-69
2022/11/08 01:03:20;;;;;;;3.40;1.97;;;3.40;99.90;;;;;;4247759;27;20856;-69
2022/11/08 01:05:20;;;;;;;3.30;2.27;;;3.30;99.90;;;;;;4247603;27;20425;-69
2022/11/08 01:07:21;;;;;;;4.17;2.50;;;3.10;99.90;;;;;;4247573;27;20176;-68
2022/11/08 01:09:22;;;;;;;4.63;3.00;;;3.10;99.90;;;;;;4247544;27;20207;-69
2022/11/08 01:11:25;;;;;;;3.47;2.70;;;3.10;99.90;;;;;;4246769;27;20210;-69
2022/11/08 01:13:26;;;;;;;3.77;2.57;;;3.10;99.90;;;;;;4246311;27;20604;-69
2022/11/08 01:15:26;;;;;;;3.57;2.70;;;3.20;99.90;;;;;;4247773;27;20430;-69
2022/11/08 01:17:27;;;;;;;7.40;3.10;;;3.10;99.90;;;;;;4247757;27;20192;-69
2022/11/08 01:19:28;;;;;;;4.13;2.10;;;3.20;99.90;;;;;;4247504;27;20745;-69
2022/11/08 01:21:28;;;;;;;3.40;2.23;;;3.10;99.90;;;;;;4246529;27;20196;-69
2022/11/08 01:23:30;;;;;;;3.93;2.30;;;3.20;99.90;;;;;;4246976;27;20179;-69
2022/11/08 01:25:36;;;;;;;3.17;2.40;;;3.10;99.90;;;;;;4246930;27;20180;-69
2022/11/08 01:27:36;;;;;;;2.83;2.10;;;3.10;99.90;;;;;;4247197;27;21031;-69
2022/11/08 01:29:37;;;;;;;4.10;1.93;;;3.20;99.90;;;;;;4247069;27;20445;-69
2022/11/08 01:31:38;;;;;;;3.23;1.90;;;3.30;99.90;;;;;;4246287;27;20216;-69
2022/11/08 01:33:39;;;;;;;2.50;1.97;;;3.30;99.90;;;;;;4228571;27;20189;-69
2022/11/08 01:35:43;;;;;;;2.10;1.90;;;3.30;99.90;;;;;;4212884;28;20193;-69
2022/11/08 01:37:44;;;;;;;3.07;2.30;;;3.30;99.90;;;;;;4212948;28;20403;-69
2022/11/08 01:39:44;;;;;;;3.50;2.00;;;3.30;99.90;;;;;;4212824;28;20437;-69
2022/11/08 01:41:45;;;;;;;4.07;1.93;;;3.30;99.90;;;;;;4212142;28;20188;-69
2022/11/08 01:43:48;;;;;;;4.43;2.23;;;3.30;99.90;;;;;;4226090;28;20189;-69
2022/11/08 01:46:33;;;;;;;4.20;2.03;;;3.30;99.90;;;;;;4229569;28;20193;-69
2022/11/08 01:48:36;;;;;;;3.53;1.90;;;3.30;99.90;;;;;;4229760;28;20410;-68
2022/11/08 01:50:37;;;;;;;3.17;1.90;;;3.30;99.90;;;;;;4229070;28;20775;-69
2022/11/08 01:52:47;;;;;;;2.40;1.90;;;3.30;99.90;;;;;;4229823;28;20419;-68
2022/11/08 01:55:05;;;;;;;2.97;1.70;;;3.20;99.90;;;;;;4229868;28;20182;-69
2022/11/08 01:57:10;;;;;;;3.47;2.10;;;3.30;99.90;;;;;;4228713;28;20422;-69
2022/11/08 01:59:14;;;;;;;3.03;2.03;;;3.30;99.90;;;;;;4229003;28;20932;-68
2022/11/08 02:01:15;;;;;;;2.90;2.10;;;3.20;99.90;;;;;;4228033;28;20493;-69
2022/11/08 02:03:19;;;;;;;3.67;2.00;;;3.10;99.90;;;;;;4229606;28;20470;-69
2022/11/08 02:05:26;;;;;;;5.90;2.23;;;3.00;99.90;;;;;;4230036;28;20194;-69
2022/11/08 02:07:29;;;;;;;2.20;1.70;;;3.00;99.90;;;;;;4228575;28;20463;-69
2022/11/08 02:09:31;;;;;;;3.90;2.10;;;3.00;99.90;;;;;;4229552;28;20543;-69
2022/11/08 02:11:34;;;;;;;3.27;2.07;;;3.00;99.90;;;;;;4228984;28;20478;-69
2022/11/08 02:13:36;;;;;;;2.30;1.90;;;3.00;99.90;;;;;;4229745;28;20933;-69
2022/11/08 02:15:37;;;;;;;2.27;1.70;;;2.90;99.90;;;;;;4228451;28;20421;-69
2022/11/08 02:17:38;;;;;;;2.83;1.80;;;2.80;99.90;;;;;;4229888;28;20844;-68
2022/11/08 02:19:43;;;;;;;2.93;1.90;;;2.90;99.90;;;;;;4229659;28;20441;-68
2022/11/08 02:21:51;;;;;;;3.40;1.93;;;2.80;99.90;;;;;;4227783;28;20625;-69
2022/11/08 02:23:58;;;;;;;2.10;1.80;;;2.70;99.90;;;;;;4228182;28;20468;-68
2022/11/08 02:25:59;;;;;;;3.03;2.00;;;2.80;99.90;;;;;;4227994;28;20878;-69
2022/11/08 02:28:00;;;;;;;6.37;1.90;;;2.80;99.90;;;;;;4228990;28;20426;-68
2022/11/08 02:30:00;;;;;;;2.43;1.50;;;2.90;99.90;;;;;;4229243;28;20745;-68
2022/11/08 02:32:03;;;;;;;5.13;1.90;;;2.80;99.90;;;;;;4228480;28;20841;-69
2022/11/08 02:34:04;;;;;;;4.03;1.57;;;2.80;99.90;;;;;;4229097;28;20175;-69
2022/11/08 02:36:06;;;;;;;2.43;1.60;;;2.90;99.90;;;;;;4228902;28;20447;-69
2022/11/08 02:38:07;;;;;;;2.80;2.00;;;2.90;99.90;;;;;;4228918;28;20408;-69
2022/11/08 02:40:09;;;;;;;1.97;1.60;;;3.00;99.90;;;;;;4229751;28;20438;-69
2022/11/08 02:42:17;;;;;;;3.17;1.80;;;3.00;99.90;;;;;;4233702;28;20384;-68
2022/11/08 02:44:18;;;;;;;3.00;1.87;;;3.00;99.90;;;;;;4230357;28;20396;-68
2022/11/08 02:46:18;;;;;;;2.10;1.70;;;3.00;99.90;;;;;;4229475;28;20448;-68
2022/11/08 02:48:19;;;;;;;3.87;2.03;;;3.10;99.90;;;;;;4229074;28;20191;-69
2022/11/08 02:50:20;;;;;;;3.40;1.67;;;3.20;99.90;;;;;;4228565;28;20244;-68
2022/11/08 02:52:20;;;;;;;2.40;2.10;;;3.30;99.90;;;;;;4229071;28;20206;-69
2022/11/08 02:54:21;;;;;;;2.17;1.70;;;3.30;99.90;;;;;;4229255;28;20181;-69
2022/11/08 02:56:22;;;;;;;2.17;1.80;;;3.30;99.90;;;;;;4229016;28;20552;-69
2022/11/08 02:58:23;;;;;;;4.00;1.90;;;3.30;99.90;;;;;;4229114;28;20205;-69
2022/11/08 03:00:24;;;;;;;4.23;2.00;;;3.30;99.90;;;;;;4228571;28;20199;-68
2022/11/08 03:02:25;;;;;;;2.87;1.90;;;3.30;99.90;;;;;;4229135;28;20428;-69
2022/11/08 03:04:25;;;;;;;2.33;1.90;;;3.30;99.90;;;;;;4229035;28;20618;-68
2022/11/08 03:06:26;;;;;;;3.13;1.80;;;3.40;99.90;;;;;;4229021;28;20182;-69
2022/11/08 03:08:27;;;;;;;2.80;1.83;;;3.30;99.90;;;;;;4229118;28;20209;-69
2022/11/08 03:10:28;;;;;;;2.30;1.77;;;3.40;99.90;;;;;;4230658;28;20430;-69
2022/11/08 03:12:29;;;;;;;5.13;1.60;;;3.40;99.90;;;;;;4231046;28;20285;-69
2022/11/08 03:14:29;;;;;;;2.20;1.40;;;3.30;99.90;;;;;;4232698;28;20187;-70
2022/11/08 03:16:30;;;;;;;2.43;1.37;;;3.30;99.90;;;;;;4232824;28;20183;-69
2022/11/08 03:18:31;;;;;;;2.70;1.67;;;3.30;99.90;;;;;;4232552;28;20185;-69
2022/11/08 03:20:32;;;;;;;2.00;1.57;;;3.20;99.90;;;;;;4231717;28;20647;-69
2022/11/08 03:22:32;;;;;;;2.30;1.47;;;3.20;99.90;;;;;;4232369;28;20207;-69
2022/11/08 03:24:33;;;;;;;3.07;1.90;;;3.20;99.90;;;;;;4232252;28;20184;-69
2022/11/08 03:26:34;;;;;;;2.87;1.60;;;3.10;99.90;;;;;;4232210;28;20189;-69
2022/11/08 03:28:34;;;;;;;2.97;1.63;;;3.10;99.90;;;;;;4232264;28;20180;-69
2022/11/08 03:30:36;;;;;;;3.33;2.30;;;3.10;99.90;;;;;;4231290;28;20168;-69
2022/11/08 03:32:36;;;;;;;2.67;1.90;;;3.00;99.90;;;;;;4232008;28;20175;-69
2022/11/08 03:34:37;;;;;;;4.83;2.20;;;3.00;99.90;;;;;;4226296;28;20918;-69
2022/11/08 03:36:38;;;;;;;2.50;1.90;;;2.90;99.90;;;;;;4215023;28;20717;-69
2022/11/08 03:38:38;;;;;;;2.53;2.17;;;3.00;99.90;;;;;;4214980;28;20166;-69
2022/11/08 03:40:39;;;;;;;7.93;2.10;;;2.90;99.90;;;;;;4218503;28;20606;-69
2022/11/08 03:42:40;;;;;;;3.60;2.70;;;2.90;99.90;;;;;;4231766;28;20520;-69
2022/11/08 03:44:40;;;;;;;2.20;1.90;;;3.00;99.90;;;;;;4231663;28;20191;-69
2022/11/08 03:46:41;;;;;;;5.20;2.13;;;3.00;99.90;;;;;;4231719;28;20180;-69
2022/11/08 03:48:42;;;;;;;4.07;2.10;;;3.10;99.90;;;;;;4231609;28;20237;-70
2022/11/08 03:50:42;;;;;;;2.73;2.20;;;3.10;99.90;;;;;;4226684;28;20196;-69
2022/11/08 03:52:52;;;;;;;6.30;1.83;;;3.20;99.90;;;;;;4236622;27;20606;-69
2022/11/08 03:54:53;;;;;;;5.43;2.17;;;3.10;99.90;;;;;;4232044;27;20197;-69
2022/11/08 03:56:53;;;;;;;4.87;2.90;;;3.10;99.90;;;;;;4231648;28;20424;-69
2022/11/08 03:58:54;;;;;;;5.20;1.90;;;3.20;99.90;;;;;;4231368;28;20207;-69
2022/11/08 04:00:57;;;;;;;2.00;1.70;;;3.20;99.90;;;;;;4230828;28;20646;-69
2022/11/08 04:03:02;;;;;;;2.60;1.80;;;3.40;99.90;;;;;;4231435;28;20253;-69
2022/11/08 04:05:04;;;;;;;2.60;2.27;;;3.30;99.90;;;;;;4229976;28;20900;-69
2022/11/08 04:07:05;;;;;;;2.63;1.80;;;3.40;99.90;;;;;;4231506;28;20942;-69
2022/11/08 04:09:06;;;;;;;5.63;2.00;;;3.30;99.90;;;;;;4231355;28;20450;-69
2022/11/08 04:15:49;;;;;;;4.87;2.10;;;3.40;99.90;;;;;;4231207;28;20403;-69
2022/11/08 04:22:30;;;;;;;2.47;2.00;;;3.30;99.90;;;;;;4230624;28;20796;-69
2022/11/08 04:24:31;;;;;;;3.93;2.00;;;3.30;99.90;;;;;;4231127;28;20469;-69
2022/11/08 04:26:32;;;;;;;1.93;1.50;;;3.30;99.90;;;;;;4231295;28;20175;-69
2022/11/08 04:28:37;;;;;;;2.90;1.93;;;3.40;99.90;;;;;;4231179;28;20177;-69
2022/11/08 04:30:38;;;;;;;2.00;1.70;;;3.40;99.90;;;;;;4230137;28;20164;-69
2022/11/08 04:32:38;;;;;;;3.60;1.80;;;3.50;99.90;;;;;;4231097;28;20462;-69
2022/11/08 04:34:39;;;;;;;3.40;1.80;;;3.50;99.90;;;;;;4231469;28;20667;-70
2022/11/08 04:36:40;;;;;;;2.37;1.70;;;3.50;99.90;;;;;;4231305;28;20184;-70
2022/11/08 04:38:41;;;;;;;2.80;1.77;;;3.60;99.90;;;;;;4231039;28;20175;-70
2022/11/08 04:40:41;;;;;;;4.63;1.93;;;3.50;99.90;;;;;;4233938;28;20226;-70
2022/11/08 04:42:45;;;;;;;4.00;1.60;;;3.60;99.90;;;;;;4233826;28;20293;-69
2022/11/08 04:44:46;;;;;;;3.03;1.53;;;3.80;99.90;;;;;;4231727;28;20175;-70
2022/11/08 04:46:46;;;;;;;2.60;1.77;;;3.90;99.90;;;;;;4231723;28;20483;-70
2022/11/08 04:48:54;;;;;;;4.20;1.67;;;3.90;99.90;;;;;;4231960;28;20197;-70
2022/11/08 04:51:00;;;;;;;3.37;1.67;;;4.00;99.90;;;;;;4230693;28;20232;-70
2022/11/08 04:53:01;;;;;;;2.87;1.70;;;4.10;99.90;;;;;;4231256;28;20443;-70
2022/11/08 04:55:01;;;;;;;2.00;1.80;;;4.10;99.90;;;;;;4231305;28;20472;-70
2022/11/08 04:57:02;;;;;;;1.90;1.60;;;4.10;99.90;;;;;;4230893;28;20186;-70
2022/11/08 04:59:03;;;;;;;2.10;1.40;;;4.10;99.90;;;;;;4231087;28;20256;-70
2022/11/08 05:01:06;;;;;;;2.67;1.80;;;4.00;99.90;;;;;;4229981;28;20180;-70
2022/11/08 05:03:07;;;;;;;1.87;1.47;;;4.00;99.90;;;;;;4231027;28;20177;-70
2022/11/08 05:05:08;;;;;;;4.37;1.73;;;4.10;99.90;;;;;;4230943;28;20790;-70
2022/11/08 05:07:09;;;;;;;2.17;1.50;;;4.10;99.90;;;;;;4231140;28;20594;-70
2022/11/08 05:09:10;;;;;;;5.07;1.70;;;4.10;99.90;;;;;;4230909;28;20467;-68
2022/11/08 05:11:15;;;;;;;3.03;1.77;;;4.10;99.90;;;;;;4230166;28;20216;-69
2022/11/08 05:13:15;;;;;;;1.80;1.47;;;4.00;99.90;;;;;;4230860;28;20429;-68
2022/11/08 05:15:16;;;;;;;10.03;5.70;;;4.10;99.90;;;;;;4230867;28;20411;-69
2022/11/08 05:17:17;;;;;;;4.87;3.20;;;4.20;99.90;;;;;;4230736;28;20201;-68
2022/11/08 05:23:22;;;;;;;2.33;1.90;;;4.40;99.90;;;;;;4231159;28;20201;-69
2022/11/08 05:23:58;;;;;;;2.70;2.00;;;4.50;99.90;;;;;;4230012;28;20434;-69
2022/11/08 05:25:59;;;;;;;2.63;1.60;;;4.60;99.90;;;;;;4229882;28;20504;-69
2022/11/08 05:27:59;;;;;;;4.23;1.70;;;4.60;99.90;;;;;;4230274;28;20484;-69
2022/11/08 05:30:00;;;;;;;2.83;2.50;;;4.60;99.90;;;;;;4230075;28;20209;-69
2022/11/08 05:32:01;;;;;;;3.37;1.53;;;4.60;99.90;;;;;;4228969;28;20205;-69
2022/11/08 05:34:02;;;;;;;2.97;1.53;;;4.60;99.90;;;;;;4229777;28;20657;-70
2022/11/08 05:36:09;;;;;;;2.20;1.10;;;4.70;99.90;;;;;;4229749;28;20640;-70
2022/11/08 05:38:09;;;;;;;3.13;1.87;;;4.80;99.90;;;;;;4229848;28;20694;-70
2022/11/08 05:40:10;;;;;;;1.20;1.00;;;4.70;99.90;;;;;;4229371;28;20513;-69
2022/11/08 05:42:11;;;;;;;1.57;1.20;;;4.70;99.90;;;;;;4225776;27;20204;-69
2022/11/08 05:44:12;;;;;;;1.90;1.30;;;4.50;99.90;;;;;;4229385;28;20434;-69
2022/11/08 05:46:14;;;;;;;1.40;1.10;;;4.60;99.90;;;;;;4216400;28;20605;-69
2022/11/08 05:48:14;;;;;;;2.63;1.30;;;4.70;99.90;;;;;;4212594;28;20181;-68
2022/11/08 05:50:15;;;;;;;1.70;1.17;;;4.70;99.90;;;;;;4225327;28;20447;-69
2022/11/08 05:52:16;;;;;;;3.97;1.37;;;4.90;99.90;;;;;;4227973;28;20244;-69
2022/11/08 05:54:16;;;;;;;1.63;1.10;;;4.90;99.90;;;;;;4229402;28;20210;-69
2022/11/08 05:56:17;;;;;;;2.93;1.63;;;4.90;99.90;;;;;;4229140;28;20182;-70
2022/11/08 05:58:18;;;;;;;2.50;1.37;;;4.90;99.90;;;;;;4229284;28;20180;-70
2022/11/08 06:00:19;;;;;;;4.57;2.30;;;5.00;99.90;;;;;;4228599;28;20676;-69
2022/11/08 06:02:20;;;;;;;1.93;1.73;;;5.10;99.90;;;;;;4229086;28;20839;-69
2022/11/08 06:04:21;;;;;;;3.43;1.40;;;5.10;99.90;;;;;;4229321;28;20443;-69
2022/11/08 06:06:22;;;;;;;2.57;1.67;;;5.20;99.90;;;;;;4229155;28;20186;-68
2022/11/08 06:08:23;;;;;;;1.57;1.37;;;5.10;99.90;;;;;;4227780;28;20323;-68
2022/11/08 06:10:24;;;;;;;1.90;1.30;;;5.20;99.90;;;;;;4228611;28;20451;-68
2022/11/08 06:12:25;;;;;;;2.10;1.37;;;5.10;99.90;;;;;;4229211;28;20593;-68
2022/11/08 06:14:26;;;;;;;2.33;1.03;;;5.10;99.90;;;;;;4229046;28;20427;-69
2022/11/08 06:16:26;;;;;;;3.97;2.90;;;5.10;99.90;;;;;;4229186;28;20177;-69
2022/11/08 06:18:29;;;;;;;5.03;3.27;;;5.20;99.90;;;;;;4229064;28;20239;-69
2022/11/08 06:20:30;;;;;;;12.60;5.30;;;5.10;99.90;;;;;;4228776;28;20189;-69
2022/11/08 06:22:31;;;;;;;15.20;5.93;;;4.90;99.90;;;;;;4229276;28;20428;-70
2022/11/08 06:24:32;;;;;;;6.73;4.50;;;4.60;99.90;;;;;;4229626;28;20437;-69
2022/11/08 06:26:33;;;;;;;5.17;4.07;;;4.60;99.90;;;;;;4228335;28;20419;-68
2022/11/08 06:28:35;;;;;;;6.97;3.73;;;4.60;99.90;;;;;;4229148;28;20209;-69
2022/11/08 06:30:35;;;;;;;6.47;3.93;;;4.50;99.90;;;;;;4228709;28;20181;-69
2022/11/08 06:32:36;;;;;;;7.73;3.90;;;4.60;99.90;;;;;;4229076;28;20454;-69
2022/11/08 06:34:37;;;;;;;5.77;3.40;;;4.60;99.90;;;;;;4228976;28;20618;-69
2022/11/08 06:36:37;;;;;;;8.70;4.03;;;4.70;99.90;;;;;;4229031;28;20272;-69
2022/11/08 06:38:38;;;;;;;5.10;3.40;;;4.70;99.90;;;;;;4229066;28;20551;-69
2022/11/08 06:40:39;;;;;;;9.17;3.90;;;4.60;99.90;;;;;;4237488;28;20196;-68
2022/11/08 06:42:40;;;;;;;13.70;8.60;;;4.50;99.90;;;;;;4245473;28;20227;-68
2022/11/08 06:44:40;;;;;;;21.53;14.03;;;4.50;99.90;;;;;;4229914;28;20185;-69
2022/11/08 06:46:41;;;;;;;15.53;8.97;;;4.50;99.90;;;;;;4229382;28;20184;-69
2022/11/08 06:48:41;;;;;;;8.87;6.00;;;4.60;99.90;;;;;;4228961;28;20184;-69
2022/11/08 06:50:43;;;;;;;10.60;6.27;;;4.70;99.90;;;;;;4228379;28;20189;-69
2022/11/08 06:52:43;;;;;;;10.40;5.43;;;4.70;99.90;;;;;;4229110;28;20186;-69
2022/11/08 06:54:44;;;;;;;10.00;6.63;;;4.60;99.90;;;;;;4229087;28;20472;-69
2022/11/08 06:56:45;;;;;;;8.80;6.27;;;4.70;99.90;;;;;;4229099;28;20672;-69
2022/11/08 06:58:46;;;;;;;13.13;6.37;;;4.70;99.90;;;;;;4228011;28;20502;-69
2022/11/08 07:00:47;;;;;;;9.13;6.33;;;4.70;99.90;;;;;;4228489;28;20454;-69
2022/11/08 07:02:59;;;;;;;10.37;6.17;;;4.70;99.90;;;;;;4228935;28;20182;-69
2022/11/08 07:04:59;;;;;;;9.27;5.93;;;4.70;99.90;;;;;;4228942;28;20169;-69
2022/11/08 07:07:00;;;;;;;11.70;6.40;;;4.70;99.90;;;;;;4229016;28;21003;-69
2022/11/08 07:09:01;;;;;;;10.27;7.03;;;4.70;99.90;;;;;;4228891;28;20194;-69
2022/11/08 07:11:02;;;;;;;18.93;11.50;;;4.80;99.90;;;;;;4227174;28;20236;-69
2022/11/08 07:13:05;;;;;;;27.87;12.83;;;4.80;99.90;;;;;;4228778;28;20182;-69
2022/11/08 07:15:06;;;;;;;22.57;11.50;;;4.90;99.90;;;;;;4228836;28;20419;-69
2022/11/08 07:17:06;;;;;;;24.63;11.47;;;4.90;99.90;;;;;;4228855;28;20431;-69
2022/11/08 07:19:07;;;;;;;18.07;10.63;;;5.00;99.90;;;;;;4227730;28;20474;-69
2022/11/08 07:21:08;;;;;;;18.40;8.33;;;5.10;99.90;;;;;;4228176;28;20186;-69
2022/11/08 07:23:10;;;;;;;18.17;7.93;;;5.10;99.90;;;;;;4228589;28;20179;-69
2022/11/08 07:25:10;;;;;;;15.40;7.80;;;5.20;99.90;;;;;;4228644;28;20225;-69
2022/11/08 07:27:11;;;;;;;12.27;6.37;;;5.20;99.90;;;;;;4228632;28;20452;-69
2022/11/08 07:29:12;;;;;;;15.30;7.17;;;5.10;99.90;;;;;;4229035;28;20228;-69
2022/11/08 07:31:12;;;;;;;12.47;6.03;;;5.30;99.90;;;;;;4228171;28;20196;-69
2022/11/08 07:33:15;;;;;;;14.13;6.93;;;5.40;99.90;;;;;;4229830;28;20253;-69
2022/11/08 07:35:16;;;;;;;8.63;5.60;;;5.60;99.90;;;;;;4228958;28;20185;-69
2022/11/08 07:37:16;;;;;;;8.90;6.20;;;5.80;99.90;;;;;;4228852;28;20416;-69
2022/11/08 07:39:17;;;;;;;8.27;5.77;;;6.00;99.90;;;;;;4228861;28;20210;-69
2022/11/08 07:41:18;;;;;;;11.57;6.03;;;6.10;99.90;;;;;;4227880;28;20181;-69
2022/11/08 07:43:19;;;;;;;9.73;5.53;;;6.30;99.90;;;;;;4216664;28;20429;-69
2022/11/08 07:45:19;;;;;;;12.27;5.97;;;6.40;99.90;;;;;;4211848;28;20183;-69
2022/11/08 07:47:20;;;;;;;12.73;6.27;;;6.40;99.90;;;;;;4212005;28;20185;-69
2022/11/08 07:49:21;;;;;;;17.10;8.03;;;6.50;99.90;;;;;;4212074;28;20206;-69
2022/11/08 07:51:21;;;;;;;16.27;10.07;;;6.60;99.90;;;;;;4219863;28;20195;-69
2022/11/08 07:53:23;;;;;;;16.80;9.23;;;6.70;99.90;;;;;;4228762;28;20176;-69
2022/11/08 07:55:25;;;;;;;24.00;12.87;;;6.90;99.90;;;;;;4228762;28;20202;-69
2022/11/08 07:57:26;;;;;;;26.23;13.97;;;7.00;99.90;;;;;;4228084;28;20930;-69
2022/11/08 07:59:26;;;;;;;17.70;11.43;;;7.00;99.90;;;;;;4238462;27;20496;-69
2022/11/08 08:01:27;;;;;;;19.80;12.33;;;7.10;99.90;;;;;;4239525;27;20181;-69
2022/11/08 08:03:29;;;;;;;15.43;9.13;;;7.20;99.90;;;;;;4248715;27;20177;-69
2022/11/08 08:05:37;;;;;;;19.77;11.07;;;7.10;99.90;;;;;;4247115;27;20170;-69
2022/11/08 08:07:38;;;;;;;26.77;14.50;;;7.00;99.90;;;;;;4247076;27;20407;-69
2022/11/08 08:09:38;;;;;;;56.20;30.23;;;7.00;99.90;;;;;;4248474;27;20820;-69
2022/11/08 08:11:39;;;;;;;45.70;23.50;;;6.80;99.90;;;;;;4248073;27;20206;-69
2022/11/08 08:13:40;;;;;;;51.83;27.27;;;6.90;99.90;;;;;;4248386;27;20212;-69
2022/11/08 08:15:41;;;;;;;38.93;21.07;;;7.00;99.90;;;;;;4248106;27;20173;-69
2022/11/08 08:17:41;;;;;;;39.20;22.43;;;7.00;99.90;;;;;;4248321;27;20469;-69
2022/11/08 08:19:42;;;;;;;40.07;20.70;;;7.00;99.90;;;;;;4248290;27;20206;-69
2022/11/08 08:21:43;;;;;;;39.47;20.90;;;7.20;99.90;;;;;;4247515;27;20182;-69
2022/11/08 08:23:43;;;;;;;37.67;19.57;;;7.30;99.90;;;;;;4248075;27;20189;-68
2022/11/08 08:25:44;;;;;;;32.57;17.13;;;7.40;99.90;;;;;;4248052;27;20168;-68
2022/11/08 08:27:50;;;;;;;32.33;16.43;;;7.50;99.90;;;;;;4247961;27;20189;-68
2022/11/08 08:29:50;;;;;;;26.53;15.67;;;7.40;99.90;;;;;;4248712;27;20655;-69
2022/11/08 08:31:51;;;;;;;26.03;14.97;;;7.50;99.90;;;;;;4247476;27;20459;-68
2022/11/08 08:33:52;;;;;;;20.63;12.70;;;7.60;99.90;;;;;;4247880;27;20223;-68
2022/11/08 08:35:53;;;;;;;22.63;12.37;;;7.70;99.90;;;;;;4247980;27;20178;-68
2022/11/08 08:37:58;;;;;;;24.07;12.37;;;7.90;99.90;;;;;;4247830;27;20209;-68
2022/11/08 08:39:59;;;;;;;22.73;12.77;;;8.10;99.90;;;;;;4252579;27;20514;-68
2022/11/08 08:42:00;;;;;;;18.53;11.93;;;8.30;99.90;;;;;;4254628;27;20180;-68
2022/11/08 08:44:00;;;;;;;20.67;12.13;;;8.30;99.90;;;;;;4249112;27;20184;-68
2022/11/08 08:46:03;;;;;;;19.30;12.37;;;8.50;99.90;;;;;;4248303;27;20701;-68
2022/11/08 08:48:04;;;;;;;20.67;12.67;;;8.70;99.90;;;;;;4248033;27;20181;-68
2022/11/08 08:50:05;;;;;;;19.97;11.97;;;8.80;98.20;;;;;;4247741;27;20597;-68
2022/11/08 08:52:06;;;;;;;15.57;9.63;;;8.80;99.90;;;;;;4247159;27;20219;-68
2022/11/08 08:54:07;;;;;;;16.10;9.87;;;9.00;99.10;;;;;;4247943;27;20177;-68
2022/11/08 08:56:08;;;;;;;18.67;12.00;;;9.20;98.60;;;;;;4247771;27;20180;-68
2022/11/08 08:58:09;;;;;;;19.10;11.13;;;9.20;98.10;;;;;;4248147;27;20178;-68
2022/11/08 09:00:12;;;;;;;13.27;8.37;;;9.40;99.90;;;;;;4247736;27;20197;-69
2022/11/08 09:02:13;;;;;;;13.83;7.43;;;9.60;99.90;;;;;;4246492;27;20220;-69
2022/11/08 09:04:13;;;;;;;10.23;6.07;;;9.90;99.00;;;;;;4247930;27;20182;-69
2022/11/08 09:06:14;;;;;;;11.47;6.30;;;10.10;99.90;;;;;;4247447;27;20174;-69
2022/11/08 09:08:15;;;;;;;10.43;6.87;;;10.40;99.00;;;;;;4247227;27;20181;-68
2022/11/08 09:10:15;;;;;;;10.80;6.57;;;10.60;98.20;;;;;;4246621;27;20292;-68
2022/11/08 09:12:16;;;;;;;8.50;5.50;;;10.80;98.40;;;;;;4247264;27;20732;-68
2022/11/08 09:14:17;;;;;;;7.47;5.20;;;11.10;99.30;;;;;;4228538;27;20580;-66
2022/11/08 09:16:17;;;;;;;10.60;5.57;;;11.30;95.80;;;;;;4235681;27;20173;-65
2022/11/08 09:18:19;;;;;;;7.10;4.67;;;11.50;95.00;;;;;;4239807;27;20174;-66
2022/11/08 09:20:20;;;;;;;7.73;4.70;;;11.80;96.60;;;;;;4235968;27;20190;-69
2022/11/08 09:22:21;;;;;;;7.07;4.30;;;12.00;95.80;;;;;;4245899;27;20597;-67
2022/11/08 09:24:22;;;;;;;4.83;3.40;;;12.10;94.90;;;;;;4247045;27;20334;-67
2022/11/08 09:26:22;;;;;;;4.40;2.80;;;12.30;94.90;;;;;;4247061;27;20174;-67
2022/11/08 09:28:23;;;;;;;4.23;2.73;;;12.70;92.40;;;;;;4245644;27;20191;-67
2022/11/08 09:30:25;;;;;;;4.10;2.70;;;13.10;97.10;;;;;;4246445;27;20254;-67
2022/11/08 09:32:28;;;;;;;7.90;3.80;;;13.10;91.80;;;;;;4247104;27;20293;-67
2022/11/08 09:34:29;;;;;;;3.60;2.47;;;13.10;91.70;;;;;;4224610;27;20189;-67
2022/11/08 09:36:30;;;;;;;2.50;1.80;;;13.20;86.40;;;;;;4213014;28;20713;-67
2022/11/08 09:38:31;;;;;;;1.70;1.50;;;13.20;86.30;;;;;;4213209;28;20591;-67
2022/11/08 09:41:01;;;;;;;2.67;1.20;;;13.30;87.00;;;;;;4228107;28;20174;-67
2022/11/08 09:43:45;;;;;;;1.67;1.30;;;13.60;87.30;;;;;;4225514;28;20186;-67
2022/11/08 09:45:48;;;;;;;2.60;1.20;;;14.10;83.50;;;;;;4228545;28;20186;-67
2022/11/08 09:47:56;;;;;;;2.03;1.33;;;14.70;77.80;;;;;;4229924;28;20605;-67
2022/11/08 09:50:34;;;;;;;1.43;0.90;;;14.80;76.80;;;;;;4228440;28;20648;-68
2022/11/08 09:52:35;;;;;;;1.80;1.20;;;14.90;77.00;;;;;;4228422;28;20206;-67
2022/11/08 09:54:44;;;;;;;1.83;1.40;;;14.90;77.80;;;;;;4228334;28;20266;-68
2022/11/08 09:56:46;;;;;;;1.53;1.20;;;14.50;76.00;;;;;;4211606;28;20245;-67
2022/11/08 09:58:53;;;;;;;1.53;1.30;;;14.60;76.20;;;;;;4229560;28;20175;-67
2022/11/08 10:00:54;;;;;;;1.47;1.37;;;14.90;72.30;;;;;;4229103;28;20157;-67
2022/11/08 10:02:55;;;;;;;1.80;1.47;;;15.10;73.20;;;;;;4229709;28;20713;-67
2022/11/08 10:05:01;;;;;;;3.23;1.30;;;15.50;72.00;;;;;;4229525;28;20167;-67
2022/11/08 10:07:19;;;;;;;2.03;1.30;;;15.70;73.60;;;;;;4228315;28;20204;-67
2022/11/08 10:09:37;;;;;;;2.27;1.40;;;15.50;72.20;;;;;;4229655;28;20688;-67
2022/11/08 10:11:58;;;;;;;2.33;1.50;;;16.10;68.50;;;;;;4228978;28;20247;-68
2022/11/08 10:14:52;;;;;;;2.47;1.27;;;16.60;66.40;;;;;;4229770;28;20177;-68
2022/11/08 10:17:17;;;;;;;4.00;1.70;;;17.80;65.20;;;;;;4229677;28;20170;-68
2022/11/08 10:19:33;;;;;;;1.70;1.60;;;18.10;61.50;;;;;;4227883;28;20198;-67
2022/11/08 10:21:49;;;;;;;1.67;1.50;;;17.40;56.40;;;;;;4228836;28;20182;-67
2022/11/08 10:24:36;;;;;;;2.20;1.60;;;16.10;65.00;;;;;;4229494;28;20186;-67
2022/11/08 10:26:44;;;;;;;1.60;1.50;;;15.60;67.30;;;;;;4200552;28;20194;-67
2022/11/08 10:29:15;;;;;;;2.53;1.60;;;15.40;68.80;;;;;;4228103;28;20158;-67
2022/11/08 10:31:18;;;;;;;1.90;1.70;;;15.70;73.70;;;;;;4225358;28;20230;-67
2022/11/08 10:33:36;;;;;;;2.13;1.50;;;16.40;65.50;;;;;;4228980;28;20170;-68
2022/11/08 10:35:40;;;;;;;3.27;1.57;;;17.80;63.30;;;;;;4228097;28;20253;-68
2022/11/08 10:37:43;;;;;;;3.03;1.50;;;18.00;61.70;;;;;;4227878;28;20188;-67
2022/11/08 10:39:57;;;;;;;2.50;1.60;;;19.20;60.00;;;;;;4230066;28;20632;-68
2022/11/08 10:42:15;;;;;;;4.43;1.80;;;19.50;51.60;;;;;;4239385;28;20247;-68
2022/11/08 10:44:20;;;;;;;2.90;1.40;;;19.80;48.10;;;;;;4232006;28;20183;-67
2022/11/08 10:46:37;;;;;;;2.50;1.23;;;19.70;46.60;;;;;;4229916;28;20178;-68
2022/11/08 10:48:39;;;;;;;1.77;1.00;;;19.30;48.50;;;;;;4229403;28;20691;-67
2022/11/08 10:50:47;;;;;;;1.40;1.30;;;18.40;49.40;;;;;;4228760;28;20676;-67
2022/11/08 10:53:01;;;;;;;1.50;1.40;;;18.30;55.60;;;;;;4229525;28;20201;-67
2022/11/08 10:55:07;;;;;;;1.63;1.50;;;18.90;54.40;;;;;;4229342;28;20198;-68
2022/11/08 10:57:10;;;;;;;1.00;0.90;;;18.90;53.90;;;;;;4229585;28;20174;-68
2022/11/08 10:59:29;;;;;;;3.33;1.80;;;18.70;42.60;;;;;;4229364;28;20194;-68
2022/11/08 11:01:30;;;;;;;2.40;1.90;;;19.30;42.80;;;;;;4229085;28;20186;-68
2022/11/08 11:03:31;;;;;;;2.47;1.23;;;19.70;39.80;;;;;;4229410;28;20174;-68
2022/11/08 11:05:42;;;;;;;1.57;1.47;;;20.20;43.70;;;;;;4229107;28;20189;-68
2022/11/08 11:08:12;;;;;;;1.83;1.30;;;20.30;36.50;;;;;;4229239;28;20264;-68